createdAt,value
2022-10-29T00:03:34.946Z,22.59
2022-10-29T00:10:04.527Z,22.79
2022-10-29T00:16:31.481Z,22.81
2022-10-29T00:22:59.277Z,22.91
2022-10-29T00:29:24.531Z,23.01
2022-10-29T00:35:55.606Z,22.99
2022-10-29T00:42:30.385Z,23.1
2022-10-29T00:49:27.120Z,23.02
2022-10-29T00:56:15.856Z,23.01
2022-10-29T01:02:54.466Z,22.83
2022-10-29T01:09:22.629Z,22.78
2022-10-29T01:16:35.538Z,22.74
2022-10-29T01:23:38.700Z,22.73
2022-10-29T01:30:41.531Z,22.66
2022-10-29T01:37:46.706Z,22.67
2022-10-29T01:44:55.001Z,22.64
2022-10-29T01:51:53.714Z,22.66
2022-10-29T01:58:25.621Z,22.66
2022-10-29T02:05:09.362Z,22.63
2022-10-29T02:12:12.584Z,22.61
2022-10-29T02:19:16.626Z,22.8
2022-10-29T02:25:48.643Z,22.84
2022-10-29T02:32:15.529Z,22.76
2022-10-29T02:38:42.662Z,22.83
2022-10-29T02:45:10.708Z,22.81
2022-10-29T02:51:39.550Z,22.82
2022-10-29T02:58:04.602Z,22.73
2022-10-29T03:04:30.743Z,22.74
2022-10-29T03:11:00.127Z,22.71
2022-10-29T03:17:36.566Z,22.89
2022-10-29T03:24:05.433Z,22.65
2022-10-29T03:30:33.435Z,22.65
2022-10-29T03:36:54.902Z,22.67
2022-10-29T03:43:21.431Z,22.78
2022-10-29T03:49:52.709Z,22.83
2022-10-29T03:56:23.705Z,22.74
2022-10-29T04:02:55.842Z,22.68
2022-10-29T04:09:25.733Z,22.73
2022-10-29T04:15:58.744Z,22.81
2022-10-29T04:23:54.447Z,22.87
2022-10-29T04:29:12.108Z,22.79
2022-10-29T04:35:36.865Z,22.68
2022-10-29T04:42:01.698Z,22.61
2022-10-29T04:48:37.484Z,22.6
2022-10-29T04:55:11.255Z,22.59
2022-10-29T05:01:40.716Z,22.56
2022-10-29T05:08:10.652Z,22.55
2022-10-29T05:14:40.702Z,22.53
2022-10-29T05:21:10.722Z,22.56
2022-10-29T05:27:36.126Z,22.5
2022-10-29T05:34:02.805Z,22.54
2022-10-29T05:40:27.661Z,22.52
2022-10-29T05:46:56.814Z,22.56
2022-10-29T05:53:32.149Z,22.54
2022-10-29T06:00:08.626Z,22.55
2022-10-29T06:06:34.710Z,22.51
2022-10-29T06:13:02.811Z,22.51
2022-10-29T06:19:37.620Z,22.53
2022-10-29T06:26:08.961Z,22.5
2022-10-29T06:32:42.732Z,22.51
2022-10-29T06:39:11.763Z,22.65
2022-10-29T06:45:51.004Z,22.76
2022-10-29T06:52:14.871Z,22.67
2022-10-29T06:58:48.331Z,22.71
2022-10-29T07:05:16.715Z,22.75
2022-10-29T07:11:49.839Z,22.62
2022-10-29T07:18:23.303Z,22.64
2022-10-29T07:24:50.706Z,22.63
2022-10-29T07:31:36.742Z,22.61
2022-10-29T07:38:08.976Z,22.64
2022-10-29T07:44:47.766Z,22.68
2022-10-29T07:51:14.757Z,22.58
2022-10-29T07:57:44.369Z,22.56
2022-10-29T08:04:08.992Z,22.55
2022-10-29T08:10:37.228Z,22.57
2022-10-29T08:17:02.817Z,22.56
2022-10-29T08:23:36.769Z,22.54
2022-10-29T08:30:06.911Z,22.6
2022-10-29T08:36:35.369Z,22.61
2022-10-29T08:43:20.340Z,22.56
2022-10-29T08:50:32.955Z,22.57
2022-10-29T08:57:28.382Z,22.62
2022-10-29T09:04:23.188Z,22.61
2022-10-29T09:11:25.677Z,22.62
2022-10-29T09:18:34.844Z,22.55
2022-10-29T09:25:31.763Z,22.6
2022-10-29T09:32:39.730Z,22.65
2022-10-29T09:39:41.908Z,22.71
2022-10-29T09:46:48.117Z,22.66
2022-10-29T09:53:48.818Z,22.64
2022-10-29T10:00:36.125Z,22.65
2022-10-29T10:07:34.888Z,22.65
2022-10-29T10:14:27.714Z,22.63
2022-10-29T10:21:13.286Z,22.6
2022-10-29T10:28:07.835Z,22.64
2022-10-29T10:34:56.534Z,22.61
2022-10-29T10:41:42.978Z,22.65
2022-10-29T10:48:22.835Z,22.66
2022-10-29T10:55:15.413Z,22.66
2022-10-29T11:02:24.827Z,22.74
2022-10-29T11:09:15.004Z,22.71
2022-10-29T11:16:12.905Z,22.71
2022-10-29T11:23:26.244Z,22.79
2022-10-29T11:30:51.228Z,22.77
2022-10-29T11:37:52.166Z,22.84
2022-10-29T11:44:35.181Z,22.94
2022-10-29T11:51:42.920Z,22.81
2022-10-29T11:59:00.894Z,22.83
2022-10-29T12:06:17.896Z,22.83
2022-10-29T12:13:19.360Z,22.81
2022-10-29T12:20:15.946Z,22.89
2022-10-29T12:27:20.019Z,22.84
2022-10-29T12:34:19.889Z,22.83
2022-10-29T12:41:25.880Z,22.82
2022-10-29T12:48:26.139Z,22.85
2022-10-29T12:55:33.974Z,22.98
2022-10-29T13:02:14.427Z,23.06
2022-10-29T13:09:08.869Z,22.9
2022-10-29T13:16:05.776Z,22.86
2022-10-29T13:22:56.942Z,22.87
2022-10-29T13:29:32.009Z,22.88
2022-10-29T13:36:29.694Z,22.83
2022-10-29T13:43:29.914Z,22.88
2022-10-29T13:50:19.099Z,22.85
2022-10-29T13:57:05.098Z,22.85
2022-10-29T14:04:06.007Z,22.85
2022-10-29T14:11:15.028Z,22.85
2022-10-29T14:18:00.814Z,22.87
2022-10-29T14:24:45.173Z,22.82
2022-10-29T14:31:31.067Z,22.83
2022-10-29T14:38:18.909Z,22.83
2022-10-29T14:45:15.210Z,22.87
2022-10-29T14:52:16.474Z,22.88
2022-10-29T14:59:10.412Z,22.85
2022-10-29T15:05:58.193Z,22.87
2022-10-29T15:12:48.967Z,22.87
2022-10-29T15:19:29.991Z,22.8
2022-10-29T15:26:25.951Z,22.87
2022-10-29T15:33:12.529Z,22.87
2022-10-29T15:40:03.018Z,22.89
2022-10-29T15:46:54.028Z,22.8
2022-10-29T15:53:35.302Z,22.93
2022-10-29T16:00:05.455Z,22.96
2022-10-29T16:06:38.060Z,22.89
2022-10-29T16:13:14.549Z,23.05
2022-10-29T16:19:48.988Z,23.12
2022-10-29T16:26:21.806Z,23.07
2022-10-29T16:33:04.047Z,23.16
2022-10-29T16:39:42.073Z,23.09
2022-10-29T16:46:15.071Z,22.97
2022-10-29T16:52:45.325Z,22.9
2022-10-29T16:59:04.917Z,22.84
2022-10-29T17:05:34.091Z,22.8
2022-10-29T17:12:03.890Z,22.77
2022-10-29T17:18:25.474Z,22.77
2022-10-29T17:24:51.362Z,22.76
2022-10-29T17:31:16.056Z,22.74
2022-10-29T17:37:51.015Z,22.74
2022-10-29T17:44:12.949Z,22.73
2022-10-29T17:50:47.101Z,22.74
2022-10-29T17:57:21.981Z,22.69
2022-10-29T18:03:52.220Z,22.67
2022-10-29T18:10:21.405Z,22.67
2022-10-29T18:16:54.313Z,22.65
2022-10-29T18:23:22.139Z,22.7
2022-10-29T18:29:58.112Z,22.7
2022-10-29T18:36:34.947Z,22.66
2022-10-29T18:42:57.002Z,22.63
2022-10-29T18:49:26.194Z,22.66
2022-10-29T18:56:04.194Z,22.67
2022-10-29T19:02:47.176Z,22.64
2022-10-29T19:09:14.123Z,22.63
2022-10-29T19:15:43.649Z,22.65
2022-10-29T19:22:13.988Z,22.65
2022-10-29T19:28:49.897Z,22.67
2022-10-29T19:35:21.554Z,22.66
2022-10-29T19:41:43.144Z,22.61
2022-10-29T19:48:11.501Z,22.59
2022-10-29T19:54:48.137Z,22.63
2022-10-29T20:01:21.594Z,22.83
2022-10-29T20:08:01.295Z,22.79
2022-10-29T20:14:29.108Z,22.76
2022-10-29T20:21:00.874Z,22.76
2022-10-29T20:27:36.146Z,22.81
2022-10-29T20:34:04.513Z,22.92
2022-10-29T20:40:29.370Z,22.69
2022-10-29T20:47:02.383Z,22.7
2022-10-29T20:53:25.526Z,22.64
2022-10-29T20:59:50.693Z,22.59
2022-10-29T21:06:24.102Z,22.57
2022-10-29T21:12:51.150Z,22.56
2022-10-29T21:19:20.129Z,22.54
2022-10-29T21:25:42.135Z,22.55
2022-10-29T21:32:11.459Z,22.56
2022-10-29T21:38:41.644Z,22.57
2022-10-29T21:45:07.103Z,22.58
2022-10-29T21:51:42.729Z,22.53
2022-10-29T21:58:07.300Z,22.55
2022-10-29T22:04:34.207Z,22.56
2022-10-29T22:10:53.142Z,22.57
2022-10-29T22:17:17.614Z,22.61
2022-10-29T22:23:47.274Z,22.59
2022-10-29T22:30:22.217Z,22.58
2022-10-29T22:36:53.152Z,22.56
2022-10-29T22:43:24.679Z,22.56
2022-10-29T22:49:47.169Z,22.57
2022-10-29T22:56:16.286Z,22.59
2022-10-29T23:02:51.133Z,22.55
2022-10-29T23:09:24.843Z,22.53
2022-10-29T23:15:51.380Z,22.55
2022-10-29T23:22:26.416Z,22.56
2022-10-29T23:28:53.335Z,22.55
2022-10-29T23:35:23.296Z,22.53
2022-10-29T23:41:52.168Z,22.51
2022-10-29T23:48:14.263Z,22.56
2022-10-29T23:54:34.836Z,22.55
